Time;durP1;ratioP1;P1;durP2;ratioP2;P2;SDS_P1;SDS_P2;PMS_P1;PMS_P2;Temp;Humidity;BMP_temperature;BMP_pressure;BME280_temperature;BME280_humidity;BME280_pressure;Samples;Min_cycle;Max_cycle;Signal;HPM_P1;HPM_P2
2023/04/21 00:00:06;;;;;;;2.20;1.92;;;18.20;58.20;;;;;;5044704;28;45310;-70
2023/04/21 00:02:33;;;;;;;3.28;2.40;;;18.20;58.20;;;;;;5044665;28;45410;-70
2023/04/21 00:05:00;;;;;;;3.00;2.03;;;18.20;58.20;;;;;;5044272;28;46318;-70
2023/04/21 00:07:29;;;;;;;2.92;2.13;;;18.20;58.30;;;;;;5044600;28;45276;-70
2023/04/21 00:09:56;;;;;;;3.55;2.33;;;18.20;58.30;;;;;;5044878;28;45191;-70
2023/04/21 00:12:24;;;;;;;2.80;2.20;;;18.20;58.30;;;;;;5044903;28;45667;-70
2023/04/21 00:14:51;;;;;;;3.05;2.28;;;18.20;58.30;;;;;;5044362;28;46069;-70
2023/04/21 00:17:17;;;;;;;3.25;2.30;;;18.20;58.50;;;;;;5043570;28;45412;-70
2023/04/21 00:19:44;;;;;;;4.60;2.50;;;18.20;58.50;;;;;;5044461;28;45258;-70
2023/04/21 00:22:13;;;;;;;3.63;2.60;;;18.20;58.50;;;;;;5044368;28;45243;-70
2023/04/21 00:24:40;;;;;;;3.08;2.30;;;18.20;58.50;;;;;;5044412;28;46293;-70
2023/04/21 00:27:07;;;;;;;3.08;2.38;;;18.20;58.60;;;;;;5044558;28;45359;-70
2023/04/21 00:29:35;;;;;;;2.90;2.30;;;18.20;58.60;;;;;;5044283;28;45212;-70
2023/04/21 00:32:02;;;;;;;3.38;2.28;;;18.20;58.70;;;;;;5044211;28;45563;-70
2023/04/21 00:34:29;;;;;;;2.72;2.35;;;18.20;58.70;;;;;;5044380;28;48074;-70
2023/04/21 00:36:56;;;;;;;3.55;2.70;;;18.20;58.70;;;;;;5044218;28;45202;-70
2023/04/21 00:39:23;;;;;;;2.78;2.28;;;18.20;58.70;;;;;;5044227;28;45356;-70
2023/04/21 00:41:49;;;;;;;3.03;2.42;;;18.20;58.70;;;;;;5047002;28;45165;-71
2023/04/21 00:44:16;;;;;;;2.90;2.35;;;18.20;58.80;;;;;;5044195;28;47658;-70
2023/04/21 00:46:44;;;;;;;3.15;2.40;;;18.20;58.80;;;;;;5044143;28;45110;-70
2023/04/21 00:49:12;;;;;;;3.15;2.50;;;18.20;58.80;;;;;;5044319;28;45160;-71
2023/04/21 00:51:40;;;;;;;3.63;2.55;;;18.20;58.80;;;;;;5043876;28;45205;-70
2023/04/21 00:54:08;;;;;;;4.05;2.58;;;18.20;58.70;;;;;;5044091;28;47467;-70
2023/04/21 00:56:36;;;;;;;3.00;2.30;;;18.20;58.70;;;;;;5044172;28;45446;-70
2023/04/21 00:59:03;;;;;;;3.92;2.33;;;18.20;58.70;;;;;;5044068;28;45238;-70
2023/04/21 01:01:31;;;;;;;3.53;2.60;;;18.20;60.00;;;;;;5043012;28;45532;-70
2023/04/21 01:04:00;;;;;;;3.95;2.90;;;18.20;58.80;;;;;;5042559;28;46835;-71
2023/04/21 01:06:28;;;;;;;3.20;2.80;;;18.20;58.80;;;;;;5043157;28;45293;-71
2023/04/21 01:08:56;;;;;;;4.63;2.93;;;18.20;58.80;;;;;;5043154;28;45238;-71
2023/04/21 01:11:22;;;;;;;3.30;2.72;;;18.20;58.90;;;;;;5043003;28;45407;-70
2023/04/21 01:13:52;;;;;;;3.87;2.80;;;18.20;58.80;;;;;;5042475;28;46604;-71
2023/04/21 01:16:20;;;;;;;3.13;2.80;;;18.20;58.90;;;;;;5043318;28;45178;-70
2023/04/21 01:18:46;;;;;;;3.83;2.67;;;18.20;58.90;;;;;;5043469;28;45155;-71
2023/04/21 01:21:15;;;;;;;3.80;2.90;;;18.20;58.90;;;;;;5043060;28;45568;-71
2023/04/21 01:23:44;;;;;;;3.90;2.97;;;18.20;59.00;;;;;;5043537;28;45241;-71
2023/04/21 01:26:11;;;;;;;3.70;3.13;;;18.20;59.10;;;;;;5042432;28;45116;-70
2023/04/21 01:28:38;;;;;;;3.70;2.58;;;18.20;59.00;;;;;;5043249;28;45120;-70
2023/04/21 01:31:05;;;;;;;4.78;2.67;;;18.20;59.00;;;;;;5043136;28;45431;-70
2023/04/21 01:33:32;;;;;;;3.17;2.53;;;18.20;58.90;;;;;;5045926;28;47233;-70
2023/04/21 01:35:59;;;;;;;3.20;2.70;;;18.20;58.90;;;;;;5043611;28;45328;-70
2023/04/21 01:38:27;;;;;;;3.05;2.63;;;18.20;59.10;;;;;;5043520;28;45144;-70
2023/04/21 01:40:55;;;;;;;4.05;2.70;;;18.20;58.90;;;;;;5043643;28;45073;-70
2023/04/21 01:43:24;;;;;;;3.75;2.63;;;18.20;59.00;;;;;;5043280;28;45491;-70
2023/04/21 01:45:52;;;;;;;4.22;3.00;;;18.20;59.00;;;;;;5043603;28;45105;-70
2023/04/21 01:48:19;;;;;;;4.47;2.70;;;18.20;59.00;;;;;;5043469;28;45154;-70
2023/04/21 01:50:45;;;;;;;3.53;2.60;;;18.20;59.00;;;;;;5042862;28;45232;-70
2023/04/21 01:53:12;;;;;;;3.58;2.85;;;18.20;59.10;;;;;;5043527;28;47321;-70
2023/04/21 01:55:39;;;;;;;3.75;2.83;;;18.20;59.10;;;;;;5043459;28;45219;-70
2023/04/21 01:58:07;;;;;;;4.30;2.83;;;18.20;59.20;;;;;;5043374;28;45174;-70
2023/04/21 02:00:34;;;;;;;4.00;2.90;;;18.20;59.20;;;;;;5043371;28;45127;-70
2023/04/21 02:03:01;;;;;;;4.20;2.83;;;18.20;59.20;;;;;;5042903;28;48029;-70
2023/04/21 02:05:27;;;;;;;3.50;2.80;;;18.20;59.30;;;;;;5042969;28;45310;-70
2023/04/21 02:07:54;;;;;;;3.67;2.90;;;18.20;59.30;;;;;;5043239;28;45168;-70
2023/04/21 02:10:21;;;;;;;3.83;2.95;;;18.20;59.40;;;;;;5043338;28;45244;-70
2023/04/21 02:12:48;;;;;;;3.42;2.63;;;18.20;59.40;;;;;;5043044;28;45306;-70
2023/04/21 02:15:16;;;;;;;3.88;3.05;;;18.20;59.50;;;;;;5042764;28;45231;-70
2023/04/21 02:17:43;;;;;;;4.93;3.15;;;18.20;59.50;;;;;;5042776;28;45177;-70
2023/04/21 02:20:12;;;;;;;4.85;2.90;;;18.20;59.60;;;;;;5043072;28;45275;-70
2023/04/21 02:22:39;;;;;;;4.07;3.03;;;18.20;59.60;;;;;;5043030;28;46866;-70
2023/04/21 02:25:06;;;;;;;4.80;3.33;;;18.20;59.60;;;;;;5045060;28;45104;-70
2023/04/21 02:27:33;;;;;;;4.15;3.08;;;18.20;59.60;;;;;;5042906;28;45169;-70
2023/04/21 02:29:59;;;;;;;4.60;2.88;;;18.20;59.60;;;;;;5042787;28;45207;-70
2023/04/21 02:32:28;;;;;;;4.80;3.15;;;18.20;59.60;;;;;;5042372;28;46471;-70
2023/04/21 02:34:55;;;;;;;4.35;3.05;;;18.20;59.60;;;;;;5042633;28;45291;-70
2023/04/21 02:37:21;;;;;;;4.22;3.08;;;18.20;59.60;;;;;;5042531;27;45308;-70
2023/04/21 02:39:48;;;;;;;4.70;3.20;;;18.20;59.60;;;;;;5042655;28;45207;-70
2023/04/21 02:42:15;;;;;;;5.75;3.25;;;18.20;59.80;;;;;;5045288;28;47332;-70
2023/04/21 02:44:42;;;;;;;3.88;2.95;;;18.20;59.70;;;;;;5045845;28;45239;-70
2023/04/21 02:47:09;;;;;;;3.63;2.67;;;18.20;59.80;;;;;;5045843;28;45297;-70
2023/04/21 02:49:41;;;;;;;5.32;3.50;;;18.20;59.80;;;;;;5045223;28;45127;-70
2023/04/21 02:52:08;;;;;;;4.28;2.90;;;18.20;59.90;;;;;;5045154;28;45292;-70
2023/04/21 02:54:34;;;;;;;4.03;2.67;;;18.20;59.90;;;;;;5045377;28;45145;-70
2023/04/21 02:57:01;;;;;;;3.65;2.40;;;18.20;59.80;;;;;;5045378;28;45159;-70
2023/04/21 02:59:28;;;;;;;3.10;2.40;;;18.20;59.90;;;;;;5045345;28;45537;-70
2023/04/21 03:01:55;;;;;;;3.50;2.75;;;18.20;59.90;;;;;;5045526;28;46606;-70
2023/04/21 03:04:23;;;;;;;4.15;2.75;;;18.20;59.80;;;;;;5045477;28;45791;-70
2023/04/21 03:06:51;;;;;;;4.50;2.47;;;18.20;59.80;;;;;;5045340;28;45144;-70
2023/04/21 03:09:18;;;;;;;3.78;2.88;;;18.20;59.80;;;;;;5045380;28;45462;-70
2023/04/21 03:11:44;;;;;;;3.38;2.47;;;18.20;59.80;;;;;;5045268;28;47516;-70
2023/04/21 03:14:11;;;;;;;3.83;2.60;;;18.20;59.80;;;;;;5045239;28;45352;-70
2023/04/21 03:16:38;;;;;;;3.58;2.55;;;18.20;59.70;;;;;;5047958;28;45133;-70
2023/04/21 03:19:05;;;;;;;3.83;3.10;;;18.20;59.70;;;;;;5045579;27;45735;-70
2023/04/21 03:21:32;;;;;;;3.80;2.58;;;18.20;59.70;;;;;;5045338;28;47951;-70
2023/04/21 03:24:00;;;;;;;4.38;2.90;;;18.20;59.70;;;;;;5045033;28;45160;-70
2023/04/21 03:26:27;;;;;;;4.00;2.78;;;18.20;59.80;;;;;;5045154;28;45289;-70
2023/04/21 03:28:53;;;;;;;3.28;2.60;;;18.10;59.60;;;;;;5045185;28;45541;-70
2023/04/21 03:31:20;;;;;;;4.13;2.92;;;18.10;59.70;;;;;;5044745;28;47508;-70
2023/04/21 03:33:47;;;;;;;3.58;2.90;;;18.10;59.70;;;;;;5045026;28;45316;-70
2023/04/21 03:36:13;;;;;;;3.53;2.90;;;18.10;59.80;;;;;;5045329;28;45251;-70
2023/04/21 03:38:40;;;;;;;3.88;2.88;;;18.10;59.80;;;;;;5045329;28;45269;-70
2023/04/21 03:41:08;;;;;;;4.30;3.10;;;18.10;59.80;;;;;;5044888;28;47681;-70
2023/04/21 03:43:35;;;;;;;4.32;2.67;;;18.10;59.80;;;;;;5044891;28;45224;-70
2023/04/21 03:46:03;;;;;;;3.40;2.80;;;18.10;59.80;;;;;;5045053;28;45195;-70
2023/04/21 03:48:30;;;;;;;4.20;2.97;;;18.10;59.70;;;;;;5044942;28;45199;-70
2023/04/21 03:50:57;;;;;;;3.67;2.88;;;18.10;59.60;;;;;;5044119;28;47329;-70
2023/04/21 03:53:24;;;;;;;4.13;3.08;;;18.10;59.60;;;;;;5043865;28;45231;-71
2023/04/21 03:55:51;;;;;;;4.28;3.22;;;18.10;59.60;;;;;;5044724;28;45133;-71
2023/04/21 03:58:19;;;;;;;4.05;2.85;;;18.10;59.70;;;;;;5044927;28;45165;-71
2023/04/21 04:00:46;;;;;;;3.63;2.83;;;18.10;60.00;;;;;;5044448;28;46556;-71
2023/04/21 04:03:13;;;;;;;5.47;3.63;;;18.10;60.30;;;;;;5044397;28;45163;-70
2023/04/21 04:05:39;;;;;;;6.32;4.13;;;18.10;60.30;;;;;;5044801;28;45315;-70
2023/04/21 04:08:06;;;;;;;6.78;3.95;;;18.10;59.60;;;;;;5047123;28;45180;-71
2023/04/21 04:10:33;;;;;;;5.07;3.75;;;18.10;58.50;;;;;;5044622;28;47332;-71
2023/04/21 04:13:00;;;;;;;6.35;4.00;;;18.10;58.00;;;;;;5044427;28;45354;-71
2023/04/21 04:15:28;;;;;;;4.97;3.80;;;18.10;57.40;;;;;;5044520;28;45221;-71
2023/04/21 04:17:55;;;;;;;5.10;3.70;;;18.00;57.20;;;;;;5044768;28;45073;-72
2023/04/21 04:20:21;;;;;;;5.25;3.80;;;18.00;57.20;;;;;;5044186;28;48271;-72
2023/04/21 04:22:48;;;;;;;4.80;3.80;;;18.00;56.80;;;;;;5044268;28;45377;-72
2023/04/21 04:25:15;;;;;;;5.85;3.92;;;18.00;56.80;;;;;;5044542;28;45225;-72
2023/04/21 04:27:44;;;;;;;5.72;4.00;;;18.00;56.60;;;;;;5044378;28;45513;-71
2023/04/21 04:30:12;;;;;;;6.07;4.13;;;18.00;56.80;;;;;;5043936;28;46259;-72
2023/04/21 04:32:40;;;;;;;4.55;3.80;;;18.00;56.30;;;;;;5043926;28;45864;-71
2023/04/21 04:35:07;;;;;;;5.55;4.22;;;17.90;56.60;;;;;;5044102;28;45318;-73
2023/04/21 04:37:36;;;;;;;6.97;4.47;;;18.00;57.10;;;;;;5044526;28;45219;-72
2023/04/21 04:40:05;;;;;;;5.05;3.75;;;18.00;57.30;;;;;;5044133;28;45443;-72
2023/04/21 04:42:33;;;;;;;4.35;3.78;;;18.00;57.10;;;;;;5044240;28;45374;-71
2023/04/21 04:45:00;;;;;;;5.82;3.80;;;18.00;57.00;;;;;;5044702;28;45356;-71
2023/04/21 04:47:27;;;;;;;5.88;4.15;;;18.00;56.80;;;;;;5044438;28;45073;-72
2023/04/21 04:49:55;;;;;;;4.82;3.83;;;18.00;56.80;;;;;;5043975;28;45225;-72
2023/04/21 04:52:22;;;;;;;4.88;3.63;;;18.10;57.10;;;;;;5043943;28;45218;-72
2023/04/21 04:54:49;;;;;;;6.65;3.70;;;18.10;58.50;;;;;;5044150;28;45238;-72
2023/04/21 04:57:16;;;;;;;5.57;3.88;;;18.10;57.60;;;;;;5044115;28;45070;-72
2023/04/21 04:59:42;;;;;;;4.80;3.70;;;18.10;57.70;;;;;;5043989;28;45473;-72
2023/04/21 05:02:09;;;;;;;5.43;3.60;;;18.10;57.90;;;;;;5046058;28;45695;-71
2023/04/21 05:04:36;;;;;;;4.38;3.22;;;18.10;58.10;;;;;;5043918;28;45206;-72
2023/04/21 05:07:06;;;;;;;4.75;3.38;;;18.10;58.20;;;;;;5043845;28;45620;-71
2023/04/21 05:09:33;;;;;;;4.95;3.40;;;18.10;58.30;;;;;;5043495;28;46714;-72
2023/04/21 05:12:01;;;;;;;5.15;3.50;;;18.10;58.50;;;;;;5044033;28;45272;-71
2023/04/21 05:14:28;;;;;;;4.07;3.00;;;18.10;58.60;;;;;;5043795;28;45275;-71
2023/04/21 05:16:54;;;;;;;4.45;3.33;;;18.10;58.80;;;;;;5043998;28;45433;-72
2023/04/21 05:19:21;;;;;;;4.25;3.08;;;18.10;58.90;;;;;;5043542;28;46677;-71
2023/04/21 05:21:48;;;;;;;4.80;3.25;;;18.10;59.00;;;;;;5044043;28;45371;-71
2023/04/21 05:24:21;;;;;;;4.68;3.50;;;18.20;59.00;;;;;;5043551;28;45245;-72
2023/04/21 05:26:48;;;;;;;4.88;3.08;;;18.20;59.00;;;;;;5044008;28;45194;-72
2023/04/21 05:29:15;;;;;;;3.72;2.80;;;18.20;59.20;;;;;;5043878;28;45355;-72
2023/04/21 05:31:42;;;;;;;4.38;3.30;;;18.20;59.20;;;;;;5043820;28;45289;-71
2023/04/21 05:34:09;;;;;;;4.78;3.63;;;18.20;59.20;;;;;;5043831;28;45092;-72
2023/04/21 05:36:36;;;;;;;4.53;3.20;;;18.20;59.20;;;;;;5043804;28;45187;-72
2023/04/21 05:39:02;;;;;;;4.82;3.03;;;18.20;59.30;;;;;;5043161;28;48254;-72
2023/04/21 05:41:30;;;;;;;4.70;3.05;;;18.20;59.50;;;;;;5043727;28;45227;-72
2023/04/21 05:43:57;;;;;;;4.32;2.78;;;18.20;59.40;;;;;;5043677;28;45242;-71
2023/04/21 05:46:24;;;;;;;3.90;2.88;;;18.20;59.70;;;;;;5043635;28;45062;-71
2023/04/21 05:48:51;;;;;;;4.50;3.00;;;18.20;59.60;;;;;;5042994;28;46383;-71
2023/04/21 05:51:18;;;;;;;3.13;2.63;;;18.20;59.70;;;;;;5042946;28;45279;-71
2023/04/21 05:53:45;;;;;;;3.40;2.70;;;18.10;59.80;;;;;;5046126;28;45157;-71
2023/04/21 05:56:13;;;;;;;4.57;2.80;;;18.10;60.00;;;;;;5043487;28;45141;-71
2023/04/21 05:58:41;;;;;;;4.03;2.80;;;18.10;60.00;;;;;;5042986;28;46583;-71
2023/04/21 06:01:08;;;;;;;4.63;2.95;;;18.10;59.90;;;;;;5042994;28;46861;-71
2023/04/21 06:03:35;;;;;;;3.72;2.78;;;18.10;60.00;;;;;;5043305;28;45191;-72
2023/04/21 06:06:03;;;;;;;3.55;2.85;;;18.10;59.90;;;;;;5043678;28;45138;-72
2023/04/21 06:08:30;;;;;;;6.15;2.72;;;18.20;60.00;;;;;;5043367;28;46988;-71
2023/04/21 06:10:57;;;;;;;3.95;2.78;;;18.20;59.90;;;;;;5043156;28;46154;-71
2023/04/21 06:13:26;;;;;;;4.80;2.72;;;18.20;60.00;;;;;;5043155;28;45168;-71
2023/04/21 06:15:54;;;;;;;3.65;2.70;;;18.20;60.00;;;;;;5042230;27;45623;-71
2023/04/21 06:18:21;;;;;;;4.80;2.90;;;18.20;60.00;;;;;;5042557;28;45257;-71
2023/04/21 06:20:50;;;;;;;4.05;2.85;;;18.20;60.00;;;;;;5043077;28;45345;-71
2023/04/21 06:23:17;;;;;;;4.28;3.03;;;18.20;60.00;;;;;;5042757;28;45316;-71
2023/04/21 06:25:44;;;;;;;3.58;2.70;;;18.20;60.00;;;;;;5042987;28;45331;-72
2023/04/21 06:28:10;;;;;;;5.32;2.95;;;18.20;60.10;;;;;;5042399;28;46291;-71
2023/04/21 06:30:37;;;;;;;4.03;2.97;;;18.20;60.10;;;;;;5042998;28;45190;-71
2023/04/21 06:33:06;;;;;;;3.78;2.40;;;18.20;60.10;;;;;;5042564;28;45219;-71
2023/04/21 06:35:33;;;;;;;3.75;2.72;;;18.20;60.20;;;;;;5043119;28;45217;-71
2023/04/21 06:38:00;;;;;;;3.75;2.75;;;18.20;60.20;;;;;;5042914;28;45459;-71
2023/04/21 06:40:27;;;;;;;3.50;2.50;;;18.20;60.30;;;;;;5042319;28;45139;-71
2023/04/21 06:42:53;;;;;;;3.88;2.88;;;18.10;60.20;;;;;;5043058;28;45175;-72
2023/04/21 06:45:20;;;;;;;4.57;2.95;;;18.20;60.40;;;;;;5045062;28;45554;-71
2023/04/21 06:47:47;;;;;;;4.32;2.63;;;18.20;60.30;;;;;;5042472;28;45576;-71
2023/04/21 06:50:15;;;;;;;3.60;2.63;;;18.10;60.30;;;;;;5042247;28;45169;-71
2023/04/21 06:52:42;;;;;;;4.00;2.63;;;18.20;60.40;;;;;;5042381;28;45352;-71
2023/04/21 06:55:09;;;;;;;4.05;2.80;;;18.20;60.30;;;;;;5042345;28;45201;-71
2023/04/21 06:57:36;;;;;;;4.28;2.72;;;18.20;60.40;;;;;;5042249;28;45453;-71
2023/04/21 07:00:05;;;;;;;3.03;2.30;;;18.20;60.40;;;;;;5042143;28;45215;-71
2023/04/21 07:02:32;;;;;;;3.00;2.25;;;18.20;60.40;;;;;;5042238;28;45199;-71
2023/04/21 07:04:58;;;;;;;2.80;2.38;;;18.20;60.40;;;;;;5042190;28;45491;-71
2023/04/21 07:07:27;;;;;;;5.18;2.90;;;18.20;60.50;;;;;;5041815;28;46686;-71
2023/04/21 07:09:53;;;;;;;3.72;2.92;;;18.20;60.50;;;;;;5042162;28;45199;-72
2023/04/21 07:12:20;;;;;;;3.38;2.83;;;18.20;60.50;;;;;;5041996;28;45171;-71
2023/04/21 07:14:47;;;;;;;3.88;2.65;;;18.20;60.50;;;;;;5042250;28;45051;-71
2023/04/21 07:17:14;;;;;;;3.80;2.92;;;18.20;60.70;;;;;;5041983;28;45202;-71
2023/04/21 07:19:40;;;;;;;4.28;2.97;;;18.20;60.80;;;;;;5042157;28;45382;-71
2023/04/21 07:22:07;;;;;;;4.72;3.33;;;18.20;61.00;;;;;;5041913;28;45383;-71
2023/04/21 07:24:36;;;;;;;3.28;2.63;;;18.20;61.00;;;;;;5041894;28;45298;-71
2023/04/21 07:27:03;;;;;;;5.43;3.15;;;18.20;61.00;;;;;;5041974;28;46346;-71
2023/04/21 07:29:30;;;;;;;5.10;2.80;;;18.20;61.00;;;;;;5045061;27;45104;-71
2023/04/21 07:31:57;;;;;;;3.95;2.95;;;18.30;61.10;;;;;;5044893;28;45231;-71
2023/04/21 07:34:24;;;;;;;3.30;2.60;;;18.30;61.00;;;;;;5045349;27;45148;-71
2023/04/21 07:36:52;;;;;;;3.53;2.75;;;18.30;61.00;;;;;;5047670;28;47288;-71
2023/04/21 07:39:19;;;;;;;6.13;2.65;;;18.30;60.80;;;;;;5038177;28;45292;-66
2023/04/21 07:41:47;;;;;;;9.10;3.10;;;18.30;61.30;;;;;;5044808;28;45409;-70
2023/04/21 07:44:13;;;;;;;6.28;3.10;;;18.40;61.30;;;;;;5045390;28;45438;-69
2023/04/21 07:46:40;;;;;;;7.13;3.30;;;18.40;61.20;;;;;;5044640;28;46572;-69
2023/04/21 07:49:07;;;;;;;4.78;3.20;;;18.40;61.40;;;;;;5044876;28;45139;-69
2023/04/21 07:51:34;;;;;;;2.95;2.42;;;18.40;61.40;;;;;;5044559;28;45122;-69
2023/04/21 07:54:01;;;;;;;4.45;2.80;;;18.40;61.30;;;;;;5044949;28;45366;-69
2023/04/21 07:56:28;;;;;;;2.92;2.50;;;18.40;61.30;;;;;;5044522;28;47511;-69
2023/04/21 07:58:56;;;;;;;4.18;2.80;;;18.40;61.30;;;;;;5044940;28;45197;-69
2023/04/21 08:01:23;;;;;;;3.90;2.80;;;18.40;61.30;;;;;;5044848;28;45122;-69
2023/04/21 08:03:50;;;;;;;4.13;2.90;;;18.40;61.30;;;;;;5045268;28;45118;-69
2023/04/21 08:06:17;;;;;;;4.40;2.70;;;18.40;61.20;;;;;;5044328;28;46375;-69
2023/04/21 08:08:43;;;;;;;4.00;2.90;;;18.40;61.20;;;;;;5044399;28;45328;-69
2023/04/21 08:11:10;;;;;;;3.20;2.60;;;18.40;61.30;;;;;;5044638;28;45264;-69
2023/04/21 08:13:37;;;;;;;4.20;3.00;;;18.40;61.20;;;;;;5044806;28;45447;-69
2023/04/21 08:16:06;;;;;;;3.85;2.85;;;18.40;61.20;;;;;;5044456;28;47224;-69
2023/04/21 08:18:32;;;;;;;3.92;2.55;;;18.40;61.20;;;;;;5044436;28;45222;-69
2023/04/21 08:20:59;;;;;;;3.60;3.03;;;18.40;61.20;;;;;;5044557;28;45201;-69
2023/04/21 08:23:28;;;;;;;4.07;2.70;;;18.40;61.20;;;;;;5044839;28;45123;-69
2023/04/21 08:25:55;;;;;;;4.50;2.90;;;18.40;61.20;;;;;;5044364;28;47341;-69
2023/04/21 08:28:22;;;;;;;3.25;2.60;;;18.40;61.30;;;;;;5047001;28;45196;-69
2023/04/21 08:30:49;;;;;;;3.75;2.60;;;18.40;61.20;;;;;;5044550;28;45222;-69
2023/04/21 08:33:17;;;;;;;2.85;2.53;;;18.40;61.30;;;;;;5044358;28;45315;-69
2023/04/21 08:35:44;;;;;;;2.97;2.50;;;18.50;61.50;;;;;;5044263;28;46320;-69
2023/04/21 08:38:11;;;;;;;3.90;2.70;;;18.50;61.50;;;;;;5044075;28;45515;-69
2023/04/21 08:40:38;;;;;;;3.42;2.63;;;18.40;61.50;;;;;;5044357;28;45211;-69
2023/04/21 08:43:06;;;;;;;4.45;2.72;;;18.40;61.50;;;;;;5044414;28;45462;-69
2023/04/21 08:45:33;;;;;;;3.63;2.38;;;18.40;61.50;;;;;;5043918;28;46498;-69
2023/04/21 08:48:03;;;;;;;3.50;2.75;;;18.40;61.60;;;;;;5043966;28;45184;-69
2023/04/21 08:50:33;;;;;;;3.20;2.45;;;18.40;61.60;;;;;;5043969;28;45259;-69
2023/04/21 08:53:00;;;;;;;3.05;2.22;;;18.40;61.70;;;;;;5044375;28;45188;-69
2023/04/21 08:55:29;;;;;;;3.15;2.60;;;18.40;61.60;;;;;;5044054;28;45410;-69
2023/04/21 08:57:56;;;;;;;3.72;2.70;;;18.40;61.60;;;;;;5044277;28;45232;-69
2023/04/21 09:00:23;;;;;;;3.67;2.72;;;18.40;61.70;;;;;;5043891;28;45147;-69
2023/04/21 09:02:54;;;;;;;3.50;2.50;;;18.40;61.80;;;;;;5044235;28;45059;-69
2023/04/21 09:05:23;;;;;;;3.30;2.40;;;18.40;61.90;;;;;;5043691;28;46569;-69
2023/04/21 09:07:51;;;;;;;3.53;2.67;;;18.40;61.90;;;;;;5043980;28;45147;-69
2023/04/21 09:10:23;;;;;;;3.80;2.70;;;18.50;62.10;;;;;;5044057;28;45301;-69
2023/04/21 09:12:51;;;;;;;3.20;2.50;;;18.50;62.10;;;;;;5044282;28;45115;-69
2023/04/21 09:15:20;;;;;;;3.28;2.53;;;18.50;62.10;;;;;;5044021;28;45505;-69
2023/04/21 09:17:47;;;;;;;3.65;2.50;;;18.50;62.20;;;;;;5043684;28;45194;-69
2023/04/21 09:20:16;;;;;;;3.67;2.58;;;18.50;63.20;;;;;;5046569;28;45162;-69
2023/04/21 09:22:43;;;;;;;3.47;2.67;;;18.50;62.20;;;;;;5043843;28;45175;-69
2023/04/21 09:25:16;;;;;;;3.15;2.67;;;18.50;62.40;;;;;;5043761;28;46606;-69
2023/04/21 09:27:43;;;;;;;3.45;2.28;;;18.50;62.30;;;;;;5044040;28;45222;-69
2023/04/21 09:30:10;;;;;;;3.90;2.97;;;18.50;62.20;;;;;;5043782;28;45397;-69
2023/04/21 09:32:38;;;;;;;3.42;2.60;;;18.50;62.20;;;;;;5044060;28;45143;-69
2023/04/21 09:35:06;;;;;;;3.60;2.63;;;18.50;62.40;;;;;;5043346;28;46301;-69
2023/04/21 09:37:33;;;;;;;3.50;2.30;;;18.50;62.50;;;;;;5043447;28;45384;-69
2023/04/21 09:40:00;;;;;;;4.03;2.97;;;18.50;62.50;;;;;;5043631;28;45194;-69
2023/04/21 09:42:31;;;;;;;4.90;3.20;;;18.50;62.20;;;;;;5043417;28;45490;-69
2023/04/21 09:44:58;;;;;;;3.70;2.40;;;18.50;62.20;;;;;;5040592;28;45143;-69
2023/04/21 09:47:29;;;;;;;3.97;2.55;;;18.50;62.20;;;;;;5043396;28;45331;-69
2023/04/21 09:49:57;;;;;;;5.10;2.90;;;18.50;62.40;;;;;;5042536;28;45389;-69
2023/04/21 09:52:27;;;;;;;4.65;2.85;;;18.50;62.40;;;;;;5043445;28;45520;-69
2023/04/21 09:55:03;;;;;;;4.15;2.88;;;18.50;62.60;;;;;;5043066;28;46626;-69
2023/04/21 09:57:32;;;;;;;4.25;3.15;;;18.60;62.40;;;;;;5043327;28;45127;-69
2023/04/21 10:00:02;;;;;;;5.78;3.20;;;18.60;62.50;;;;;;5043420;28;45214;-69
2023/04/21 10:02:31;;;;;;;3.83;2.67;;;18.50;62.50;;;;;;5043454;28;45110;-69
2023/04/21 10:04:58;;;;;;;4.70;3.10;;;18.50;62.50;;;;;;5042942;28;45259;-69
2023/04/21 10:07:25;;;;;;;4.22;2.65;;;18.50;62.30;;;;;;5043014;28;45257;-69
2023/04/21 10:09:54;;;;;;;3.75;2.95;;;18.50;62.40;;;;;;5043129;28;45200;-69
2023/04/21 10:12:21;;;;;;;3.50;2.72;;;18.50;62.50;;;;;;5046257;28;45538;-69
2023/04/21 10:14:52;;;;;;;3.88;2.70;;;18.50;62.50;;;;;;5042851;28;46810;-69
2023/04/21 10:17:23;;;;;;;3.72;2.72;;;18.50;62.60;;;;;;5043028;28;45139;-69
2023/04/21 10:19:51;;;;;;;4.32;2.78;;;18.60;62.50;;;;;;5043045;28;45354;-69
2023/04/21 10:22:28;;;;;;;4.40;2.85;;;18.50;62.30;;;;;;5043061;28;45194;-69
2023/04/21 10:24:56;;;;;;;3.60;2.70;;;18.50;62.40;;;;;;5042851;28;45502;-70
2023/04/21 10:27:34;;;;;;;5.32;2.92;;;18.50;62.40;;;;;;5042644;28;45270;-70
2023/04/21 10:30:17;;;;;;;7.75;3.33;;;18.50;62.60;;;;;;5042906;28;45194;-70
2023/04/21 10:32:45;;;;;;;4.00;2.72;;;18.50;62.80;;;;;;5042776;28;45224;-70
2023/04/21 10:35:13;;;;;;;5.65;2.85;;;18.50;63.10;;;;;;5042996;28;47629;-70
2023/04/21 10:37:41;;;;;;;5.63;3.28;;;18.50;63.10;;;;;;5042362;28;45136;-70
2023/04/21 10:40:35;;;;;;;4.68;3.08;;;18.50;64.20;;;;;;5042802;28;45098;-70
2023/04/21 10:43:03;;;;;;;5.78;3.30;;;18.50;63.10;;;;;;5046211;27;45424;-67
2023/04/21 10:45:32;;;;;;;6.22;3.10;;;18.50;63.90;;;;;;5052804;27;46578;-69
2023/04/21 10:48:02;;;;;;;8.88;3.25;;;18.60;66.20;;;;;;5036931;27;45112;-73
2023/04/21 10:50:30;;;;;;;16.52;3.75;;;18.60;65.40;;;;;;5051057;27;45392;-70
2023/04/21 10:52:59;;;;;;;11.68;3.00;;;18.70;65.40;;;;;;5042586;28;45561;-71
2023/04/21 10:55:29;;;;;;;10.57;3.67;;;18.60;65.00;;;;;;5041999;28;46514;-71
2023/04/21 10:57:57;;;;;;;5.68;3.40;;;18.70;65.90;;;;;;5042064;28;45378;-71
2023/04/21 11:00:25;;;;;;;4.22;3.03;;;18.60;65.00;;;;;;5042315;28;45066;-71
2023/04/21 11:03:01;;;;;;;4.35;2.95;;;18.60;65.10;;;;;;5047367;28;45110;-71
2023/04/21 11:05:37;;;;;;;4.97;3.20;;;18.60;65.20;;;;;;5045831;28;47318;-71
2023/04/21 11:08:10;;;;;;;5.70;3.13;;;18.60;65.50;;;;;;5045675;28;45278;-71
2023/04/21 11:10:53;;;;;;;6.15;3.10;;;18.60;65.50;;;;;;5045925;28;45200;-71
2023/04/21 11:13:22;;;;;;;4.35;2.92;;;18.60;65.60;;;;;;5045470;28;45379;-71
2023/04/21 11:16:03;;;;;;;4.63;2.80;;;18.60;65.60;;;;;;5044996;28;45261;-71
2023/04/21 11:18:49;;;;;;;5.05;3.05;;;18.60;66.00;;;;;;5045106;28;45182;-71
2023/04/21 11:21:18;;;;;;;5.53;2.75;;;18.60;66.10;;;;;;5045503;28;45231;-71
2023/04/21 11:23:50;;;;;;;5.53;2.83;;;18.60;66.10;;;;;;5045195;27;45284;-71
2023/04/21 11:26:17;;;;;;;5.35;3.15;;;18.60;66.40;;;;;;5044813;28;45288;-71
2023/04/21 11:28:48;;;;;;;4.07;2.50;;;18.60;66.60;;;;;;5044936;28;45360;-71
2023/04/21 11:31:15;;;;;;;3.72;2.70;;;18.60;67.10;;;;;;5044996;28;45431;-71
2023/04/21 11:33:42;;;;;;;4.10;2.65;;;18.70;67.20;;;;;;5044996;28;45539;-71
2023/04/21 11:36:10;;;;;;;4.30;2.70;;;18.70;67.50;;;;;;5044995;28;48263;-70
2023/04/21 11:38:39;;;;;;;4.03;2.85;;;18.70;67.70;;;;;;5044878;28;45181;-71
2023/04/21 11:41:08;;;;;;;5.22;2.90;;;18.70;68.00;;;;;;5045161;28;45142;-70
2023/04/21 11:43:35;;;;;;;5.18;3.05;;;18.70;68.20;;;;;;5045009;28;45457;-71
2023/04/21 11:46:12;;;;;;;4.20;2.70;;;18.70;68.20;;;;;;5044753;28;47758;-71
2023/04/21 11:48:39;;;;;;;4.20;2.80;;;18.70;68.30;;;;;;5044643;28;45185;-71
2023/04/21 11:51:06;;;;;;;4.07;3.17;;;18.70;68.40;;;;;;5044485;28;45302;-71
2023/04/21 11:53:34;;;;;;;4.80;2.67;;;18.70;68.30;;;;;;5047577;28;45576;-69
2023/04/21 11:56:01;;;;;;;3.45;2.33;;;18.70;68.20;;;;;;5045042;28;45497;-70
2023/04/21 11:58:28;;;;;;;4.22;2.28;;;18.70;68.70;;;;;;5044771;28;45145;-70
2023/04/21 12:00:54;;;;;;;4.68;2.63;;;18.70;68.80;;;;;;5044818;28;45135;-70
2023/04/21 12:03:22;;;;;;;4.63;2.90;;;18.70;69.10;;;;;;5044998;28;45159;-70
2023/04/21 12:05:56;;;;;;;5.05;2.88;;;18.70;69.10;;;;;;5044815;28;46736;-70
2023/04/21 12:08:23;;;;;;;3.50;2.50;;;18.70;69.20;;;;;;5044714;28;45204;-70
2023/04/21 12:10:51;;;;;;;3.95;2.50;;;18.70;69.80;;;;;;5045126;28;45222;-70
2023/04/21 12:13:23;;;;;;;3.65;2.60;;;18.80;70.00;;;;;;5043890;28;45240;-70
2023/04/21 12:15:50;;;;;;;2.92;2.42;;;18.80;70.20;;;;;;5044287;28;47633;-70
2023/04/21 12:18:16;;;;;;;4.70;2.80;;;18.80;69.90;;;;;;5044584;28;45209;-70
2023/04/21 12:20:50;;;;;;;3.55;2.72;;;18.80;69.80;;;;;;5044549;28;45320;-70
2023/04/21 12:23:16;;;;;;;2.88;2.38;;;18.80;69.50;;;;;;5041635;28;45305;-70
2023/04/21 12:25:44;;;;;;;3.85;2.60;;;18.90;69.60;;;;;;5044200;28;46698;-70
2023/04/21 12:28:15;;;;;;;3.28;2.13;;;18.80;69.10;;;;;;5044428;28;45169;-70
2023/04/21 12:30:42;;;;;;;2.67;2.08;;;18.80;69.20;;;;;;5044675;28;45286;-70
2023/04/21 12:33:08;;;;;;;4.07;2.30;;;18.90;68.90;;;;;;5044619;28;45403;-70
2023/04/21 12:35:35;;;;;;;2.00;1.77;;;18.80;69.00;;;;;;5044195;28;46229;-70
2023/04/21 12:38:02;;;;;;;2.88;2.17;;;18.90;69.40;;;;;;5044237;28;45116;-69
2023/04/21 12:40:29;;;;;;;3.78;2.50;;;19.00;71.00;;;;;;5044437;28;45140;-70
2023/04/21 12:42:56;;;;;;;3.85;2.10;;;19.10;71.20;;;;;;5044464;28;45130;-70
2023/04/21 12:45:24;;;;;;;2.38;1.92;;;19.00;69.00;;;;;;5047071;28;46358;-69
2023/04/21 12:47:51;;;;;;;2.55;1.98;;;19.00;68.90;;;;;;5044250;28;46228;-70